Time;durP1;ratioP1;P1;durP2;ratioP2;P2;SDS_P1;SDS_P2;PMS_P1;PMS_P2;Temp;Humidity;BMP_temperature;BMP_pressure;BME280_temperature;BME280_humidity;BME280_pressure;Samples;Min_cycle;Max_cycle;Signal;HPM_P1;HPM_P2
2024/03/06 00:00:12;;;;;;;5.15;3.55;;;;;;;3.28;83.07;100524.16;2485779;29;20063;-77
2024/03/06 00:01:26;;;;;;;6.57;2.80;;;;;;;3.30;83.04;100526.75;2485677;29;20051;-77
2024/03/06 00:02:40;;;;;;;7.05;2.90;;;;;;;3.33;83.10;100531.09;2486038;29;20051;-77
2024/03/06 00:03:54;;;;;;;4.57;2.83;;;;;;;3.35;83.08;100530.28;2485844;29;20055;-78
2024/03/06 00:05:08;;;;;;;3.80;2.70;;;;;;;3.37;83.01;100530.31;2485282;29;20410;-77
2024/03/06 00:06:22;;;;;;;3.92;2.83;;;;;;;3.40;83.08;100533.81;2485187;29;20126;-77
2024/03/06 00:07:36;;;;;;;4.53;2.42;;;;;;;3.43;83.07;100533.00;2485821;29;20411;-76
2024/03/06 00:08:50;;;;;;;3.45;2.42;;;;;;;3.45;83.09;100534.78;2485651;29;20069;-77
2024/03/06 00:10:04;;;;;;;4.53;2.38;;;;;;;3.47;82.97;100534.81;2485954;29;20051;-76
2024/03/06 00:11:19;;;;;;;3.60;2.92;;;;;;;3.49;82.90;100528.84;2485304;29;20059;-77
2024/03/06 00:12:33;;;;;;;4.15;2.83;;;;;;;3.52;82.93;100527.16;2484909;29;20054;-77
2024/03/06 00:13:49;;;;;;;4.40;3.20;;;;;;;3.55;83.02;100525.50;2485046;29;20486;-77
2024/03/06 00:15:03;;;;;;;8.52;2.67;;;;;;;3.56;82.81;100529.78;2485046;29;20055;-77
2024/03/06 00:16:18;;;;;;;3.25;2.40;;;;;;;3.58;82.98;100530.69;2484868;29;20572;-77
2024/03/06 00:17:31;;;;;;;3.80;2.65;;;;;;;3.62;82.80;100529.06;2485514;29;20043;-77
2024/03/06 00:18:46;;;;;;;3.35;2.40;;;;;;;3.64;82.77;100533.41;2485534;29;20066;-77
2024/03/06 00:19:59;;;;;;;12.55;2.72;;;;;;;3.68;82.87;100531.75;2485095;29;20063;-77
2024/03/06 00:21:14;;;;;;;4.18;2.35;;;;;;;3.70;82.82;100535.22;2484366;29;20544;-77
2024/03/06 00:22:27;;;;;;;3.40;2.20;;;;;;;3.72;82.70;100530.97;2484857;29;20493;-78
2024/03/06 00:23:41;;;;;;;2.70;2.05;;;;;;;3.74;82.74;100534.41;2484973;29;20131;-78
2024/03/06 00:24:55;;;;;;;7.85;3.20;;;;;;;3.75;82.70;100536.19;2485042;29;20052;-78
2024/03/06 00:26:10;;;;;;;4.68;2.95;;;;;;;3.77;82.56;100536.19;2485518;29;20078;-77
2024/03/06 00:27:23;;;;;;;8.48;3.40;;;;;;;3.78;82.65;100533.63;2485338;29;20103;-77
2024/03/06 00:28:37;;;;;;;4.05;2.55;;;;;;;3.80;82.51;100534.53;2484977;29;20050;-76
2024/03/06 00:29:52;;;;;;;4.82;2.92;;;;;;;3.82;82.59;100548.34;2485382;29;20483;-77
2024/03/06 00:31:07;;;;;;;3.92;2.97;;;;;;;3.83;82.45;100538.88;2485621;29;20055;-77
2024/03/06 00:32:20;;;;;;;3.95;2.47;;;;;;;3.84;82.46;100540.59;2484700;29;20056;-76
2024/03/06 00:33:35;;;;;;;5.68;3.50;;;;;;;3.85;82.77;100542.38;2484276;29;20062;-77
2024/03/06 00:34:48;;;;;;;4.82;2.88;;;;;;;3.85;82.32;100543.22;2485109;29;20051;-77
2024/03/06 00:36:02;;;;;;;3.17;2.88;;;;;;;3.84;82.34;100538.88;2492784;29;20079;-76
2024/03/06 00:37:16;;;;;;;4.63;2.90;;;;;;;3.85;82.28;100538.06;2490237;29;20051;-77
2024/03/06 00:38:30;;;;;;;3.58;3.17;;;;;;;3.86;82.11;100542.38;2484955;29;20047;-77
2024/03/06 00:39:44;;;;;;;6.70;2.72;;;;;;;3.89;82.26;100538.97;2488396;29;20107;-77
2024/03/06 00:40:58;;;;;;;7.28;4.47;;;;;;;3.92;82.29;100549.34;2487921;29;20052;-77
2024/03/06 00:42:13;;;;;;;3.85;3.05;;;;;;;3.92;82.34;100545.09;2485165;29;20052;-76
2024/03/06 00:43:28;;;;;;;3.08;2.67;;;;;;;3.96;82.21;100537.38;2485282;29;20087;-77
2024/03/06 00:44:41;;;;;;;5.85;3.25;;;;;;;3.95;82.09;100533.94;2484794;29;20052;-77
2024/03/06 00:45:57;;;;;;;4.47;3.10;;;;;;;3.97;82.22;100541.69;2485152;29;20156;-77
2024/03/06 00:47:10;;;;;;;5.32;3.10;;;;;;;3.97;81.99;100539.09;2485965;29;20055;-77
2024/03/06 00:48:25;;;;;;;6.70;2.85;;;;;;;3.97;81.98;100546.84;2484992;29;20510;-77
2024/03/06 00:49:38;;;;;;;4.80;3.60;;;;;;;3.97;81.96;100539.09;2484914;29;20051;-77
2024/03/06 00:50:53;;;;;;;3.08;2.78;;;;;;;3.94;81.89;100548.53;2485001;29;20549;-77
2024/03/06 00:52:06;;;;;;;3.72;2.92;;;;;;;3.94;81.84;100545.09;2484753;29;20090;-77
2024/03/06 00:53:21;;;;;;;5.65;3.20;;;;;;;3.93;81.93;100533.91;2484461;29;20055;-77
2024/03/06 00:54:34;;;;;;;13.57;3.15;;;;;;;3.93;81.75;100535.63;2485268;29;20069;-77
2024/03/06 00:55:49;;;;;;;9.35;4.68;;;;;;;3.92;82.15;100537.34;2484884;29;20087;-77
2024/03/06 00:57:02;;;;;;;2.75;2.53;;;;;;;3.93;81.94;100533.91;2484226;29;20051;-76
2024/03/06 00:58:16;;;;;;;2.85;2.65;;;;;;;3.94;81.92;100538.19;2484563;29;20476;-77
2024/03/06 00:59:30;;;;;;;3.95;2.50;;;;;;;3.96;81.86;100535.66;2485478;29;20468;-77
2024/03/06 01:00:44;;;;;;;4.43;2.85;;;;;;;3.98;81.95;100538.28;2484466;29;20500;-77
2024/03/06 01:01:59;;;;;;;7.10;3.60;;;;;;;3.99;81.92;100534.84;2485006;29;20079;-77
2024/03/06 01:03:13;;;;;;;4.65;3.65;;;;;;;4.02;81.82;100537.47;2484484;29;20059;-76
2024/03/06 01:04:27;;;;;;;4.20;2.88;;;;;;;4.02;81.77;100534.88;2484400;29;20054;-77
2024/03/06 01:05:41;;;;;;;4.95;3.15;;;;;;;4.03;81.89;100534.06;2484733;29;20052;-77
2024/03/06 01:06:56;;;;;;;4.60;2.78;;;;;;;4.03;81.74;100531.47;2484554;29;20058;-76
2024/03/06 01:08:10;;;;;;;5.15;3.35;;;;;;;4.03;81.78;100539.22;2484770;29;20110;-77
2024/03/06 01:09:24;;;;;;;7.85;3.15;;;;;;;4.05;81.77;100535.81;2483865;29;20127;-77
2024/03/06 01:10:38;;;;;;;5.70;3.42;;;;;;;4.06;82.23;100539.25;2485055;29;20226;-77
2024/03/06 01:11:52;;;;;;;6.85;3.50;;;;;;;4.06;81.66;100539.25;2484807;29;20144;-77
2024/03/06 01:13:06;;;;;;;6.30;3.55;;;;;;;4.04;81.68;100536.66;2483451;29;20051;-77
2024/03/06 01:14:20;;;;;;;6.97;3.50;;;;;;;4.04;81.91;100543.53;2484303;29;20135;-77
2024/03/06 01:15:34;;;;;;;4.10;3.65;;;;;;;4.00;81.72;100534.88;2484238;29;20070;-77
2024/03/06 01:16:48;;;;;;;6.88;3.65;;;;;;;3.97;81.75;100526.19;2484301;29;20066;-77
2024/03/06 01:18:03;;;;;;;7.93;3.80;;;;;;;3.96;82.00;100529.63;2487443;29;20085;-77
2024/03/06 01:19:18;;;;;;;4.18;3.47;;;;;;;3.94;81.75;100533.03;2484682;29;20052;-78
2024/03/06 01:20:31;;;;;;;5.45;3.10;;;;;;;3.93;81.94;100533.03;2483901;29;20059;-77
2024/03/06 01:21:46;;;;;;;6.68;3.42;;;;;;;3.92;81.72;100536.44;2485081;29;20063;-77
2024/03/06 01:22:59;;;;;;;6.22;3.53;;;;;;;3.89;81.79;100545.00;2485050;29;20056;-76
2024/03/06 01:24:13;;;;;;;4.07;3.53;;;;;;;3.86;81.85;100544.97;2484719;29;20395;-77
2024/03/06 01:25:27;;;;;;;5.75;4.22;;;;;;;3.87;81.71;100550.97;2483502;29;20581;-77
2024/03/06 01:26:41;;;;;;;6.50;3.10;;;;;;;3.85;81.77;100544.94;2485235;29;20040;-78
2024/03/06 01:27:55;;;;;;;7.40;3.55;;;;;;;3.84;81.69;100546.63;2487963;29;20536;-77
2024/03/06 01:29:09;;;;;;;5.60;3.28;;;;;;;3.82;81.98;100548.34;2487939;29;20051;-77
2024/03/06 01:30:23;;;;;;;4.20;3.42;;;;;;;3.82;81.81;100545.78;2486962;29;20059;-77
2024/03/06 01:31:38;;;;;;;11.00;2.95;;;;;;;3.83;81.67;100551.78;2488273;29;20047;-77
2024/03/06 01:32:51;;;;;;;6.40;3.00;;;;;;;3.81;81.93;100548.31;2487910;29;20128;-77
2024/03/06 01:34:07;;;;;;;7.75;4.93;;;;;;;3.81;81.80;100543.16;2488361;29;20051;-77
2024/03/06 01:35:20;;;;;;;4.95;3.08;;;;;;;3.79;82.10;100543.09;2488141;29;20051;-77
2024/03/06 01:36:35;;;;;;;6.30;3.90;;;;;;;3.80;81.83;100542.28;2487431;29;20053;-77
2024/03/06 01:37:48;;;;;;;5.03;3.33;;;;;;;3.81;81.93;100545.72;2487924;29;20060;-77
2024/03/06 01:39:03;;;;;;;6.80;4.55;;;;;;;3.81;82.04;100546.59;2487759;29;20456;-77
2024/03/06 01:40:17;;;;;;;5.10;3.30;;;;;;;3.81;82.00;100544.00;2486841;29;20063;-77
2024/03/06 01:41:31;;;;;;;7.88;4.35;;;;;;;3.82;82.23;100550.94;2488285;29;20052;-77
2024/03/06 01:42:46;;;;;;;3.97;3.40;;;;;;;3.82;82.19;100547.44;2496904;29;20047;-76
2024/03/06 01:44:00;;;;;;;5.28;3.90;;;;;;;3.83;82.20;100544.03;2490842;29;20502;-77
2024/03/06 01:45:14;;;;;;;6.60;4.03;;;;;;;3.83;82.06;100544.91;2486042;29;20048;-77
2024/03/06 01:46:28;;;;;;;4.82;4.32;;;;;;;3.83;82.20;100544.03;2487364;29;20058;-77
2024/03/06 01:47:42;;;;;;;4.45;3.95;;;;;;;3.83;82.09;100544.03;2487750;29;20050;-77
2024/03/06 01:48:56;;;;;;;7.75;4.70;;;;;;;3.83;82.24;100541.47;2487175;29;20532;-77
2024/03/06 01:50:11;;;;;;;9.77;5.38;;;;;;;3.84;82.31;100546.63;2488015;29;20059;-77
2024/03/06 01:51:27;;;;;;;6.45;4.82;;;;;;;3.88;82.33;100542.41;2489045;29;20058;-79
2024/03/06 01:52:41;;;;;;;6.82;4.68;;;;;;;3.91;82.50;100538.16;2489324;29;20115;-78
2024/03/06 01:53:56;;;;;;;6.50;5.90;;;;;;;3.95;82.43;100539.09;2488841;29;20059;-77
2024/03/06 01:55:10;;;;;;;6.10;4.63;;;;;;;3.97;82.34;100545.13;2488007;29;20082;-77
2024/03/06 01:56:25;;;;;;;7.47;4.90;;;;;;;3.98;82.49;100543.44;2486806;29;20516;-77
2024/03/06 01:57:38;;;;;;;7.45;4.90;;;;;;;4.00;82.40;100545.22;2488152;29;20150;-76
2024/03/06 01:58:54;;;;;;;5.65;5.00;;;;;;;4.02;82.63;100543.50;2488211;29;20051;-76
2024/03/06 02:00:13;;;;;;;8.18;5.15;;;;;;;4.06;82.67;100547.00;2488381;29;20598;-78
2024/03/06 02:01:27;;;;;;;6.88;5.05;;;;;;;4.10;82.54;100544.47;2487316;29;20115;-77
2024/03/06 02:02:41;;;;;;;5.50;4.32;;;;;;;4.12;82.57;100547.97;2487613;29;20098;-77
2024/03/06 02:03:56;;;;;;;6.25;4.78;;;;;;;4.14;82.74;100545.41;2488023;29;20055;-77
2024/03/06 02:05:12;;;;;;;9.20;4.53;;;;;;;4.18;82.81;100551.50;2487142;29;20055;-77
2024/03/06 02:06:26;;;;;;;6.90;4.75;;;;;;;4.20;82.76;100548.09;2487471;29;20052;-77
2024/03/06 02:07:43;;;;;;;5.15;4.65;;;;;;;4.22;82.82;100546.41;2487348;29;20040;-77
2024/03/06 02:08:57;;;;;;;6.47;4.78;;;;;;;4.25;82.78;100548.16;2487286;29;20047;-76
2024/03/06 02:10:12;;;;;;;9.13;5.38;;;;;;;4.28;82.90;100554.22;2487919;29;20516;-77
2024/03/06 02:11:28;;;;;;;7.40;5.78;;;;;;;4.31;82.91;100554.31;2487943;29;20056;-77
2024/03/06 02:12:42;;;;;;;7.97;4.78;;;;;;;4.34;82.93;100545.72;2487151;29;20079;-77
2024/03/06 02:13:58;;;;;;;5.47;4.88;;;;;;;4.35;82.80;100550.03;2487667;29;20043;-77
2024/03/06 02:15:12;;;;;;;6.95;5.80;;;;;;;4.37;82.89;100550.94;2487210;29;20052;-77
2024/03/06 02:16:26;;;;;;;7.30;5.72;;;;;;;4.39;83.02;100546.66;2487319;29;20115;-77
2024/03/06 02:17:40;;;;;;;6.07;5.18;;;;;;;4.42;83.01;100545.84;2487917;29;20489;-77
2024/03/06 02:18:56;;;;;;;11.65;5.85;;;;;;;4.43;82.89;100550.16;2487756;29;20079;-76
2024/03/06 02:20:14;;;;;;;5.22;4.72;;;;;;;4.45;82.90;100540.72;2487543;29;20493;-77
2024/03/06 02:21:29;;;;;;;5.80;5.18;;;;;;;4.45;82.91;100543.31;2487325;29;20094;-77
2024/03/06 02:22:43;;;;;;;5.07;4.63;;;;;;;4.47;82.99;100544.19;2487833;29;20498;-77
2024/03/06 02:23:58;;;;;;;10.70;5.00;;;;;;;4.48;82.89;100540.75;2487864;29;20130;-76
2024/03/06 02:25:12;;;;;;;5.93;5.30;;;;;;;4.48;82.85;100536.44;2487945;29;20058;-78
2024/03/06 02:26:26;;;;;;;6.05;5.50;;;;;;;4.50;82.74;100539.06;2488529;29;20405;-77
2024/03/06 02:27:39;;;;;;;10.60;5.00;;;;;;;4.52;82.96;100538.25;2488430;29;20055;-77
2024/03/06 02:28:55;;;;;;;5.93;4.75;;;;;;;4.52;83.11;100539.97;2487069;29;20052;-77
2024/03/06 02:30:10;;;;;;;7.28;6.07;;;;;;;4.52;82.97;100538.25;2488748;29;20060;-77
2024/03/06 02:31:24;;;;;;;8.05;5.50;;;;;;;4.54;82.90;100535.66;2488486;29;20056;-77
2024/03/06 02:32:38;;;;;;;6.00;5.40;;;;;;;4.54;82.99;100536.56;2488184;29;20494;-77
2024/03/06 02:33:52;;;;;;;5.68;4.78;;;;;;;4.56;82.83;100536.56;2488183;29;20057;-77
2024/03/06 02:35:08;;;;;;;6.63;5.88;;;;;;;4.56;82.83;100534.84;2488064;29;20051;-76
2024/03/06 02:36:22;;;;;;;5.55;4.75;;;;;;;4.56;82.88;100540.00;2487433;29;20107;-77
2024/03/06 02:37:37;;;;;;;9.57;5.72;;;;;;;4.57;82.70;100543.50;2488451;29;20098;-77
2024/03/06 02:38:52;;;;;;;5.90;5.35;;;;;;;4.58;82.69;100537.47;2485893;29;20058;-77
2024/03/06 02:40:07;;;;;;;5.70;4.97;;;;;;;4.58;82.75;100540.03;2486575;29;20048;-77
2024/03/06 02:41:21;;;;;;;5.80;4.53;;;;;;;4.58;82.83;100542.63;2486052;29;20053;-77
2024/03/06 02:42:35;;;;;;;4.88;4.38;;;;;;;4.58;82.80;100545.22;2486660;29;20618;-77
2024/03/06 02:43:49;;;;;;;5.22;4.45;;;;;;;4.58;82.86;100547.78;2486688;29;20058;-77
2024/03/06 02:45:04;;;;;;;8.18;4.38;;;;;;;4.57;82.70;100541.75;2486318;29;20055;-77
2024/03/06 02:46:18;;;;;;;7.68;4.82;;;;;;;4.57;82.72;100543.50;2486589;29;20126;-77
2024/03/06 02:47:32;;;;;;;8.23;4.55;;;;;;;4.54;82.69;100546.91;2486836;29;20048;-77
2024/03/06 02:48:46;;;;;;;4.20;3.63;;;;;;;4.53;82.69;100544.28;2492343;29;20043;-76
2024/03/06 02:49:59;;;;;;;4.75;3.10;;;;;;;4.49;82.51;100542.47;2493131;29;20051;-77
2024/03/06 02:51:19;;;;;;;5.63;3.47;;;;;;;4.48;82.49;100549.38;2486432;29;20062;-77
2024/03/06 02:52:32;;;;;;;5.25;3.35;;;;;;;4.46;82.53;100548.47;2478051;29;20060;-77
2024/03/06 02:53:49;;;;;;;5.80;3.72;;;;;;;4.45;82.48;100558.81;2486477;29;20052;-77
2024/03/06 02:55:03;;;;;;;3.70;3.00;;;;;;;4.44;82.42;100554.47;2486473;29;20067;-77
2024/03/06 02:56:17;;;;;;;6.82;3.95;;;;;;;4.42;82.55;100553.59;2485558;29;20083;-77
2024/03/06 02:57:31;;;;;;;5.53;3.72;;;;;;;4.41;82.28;100554.44;2486086;29;20367;-77
2024/03/06 02:58:45;;;;;;;9.23;3.88;;;;;;;4.39;82.41;100557.00;2486631;29;20040;-77
2024/03/06 02:59:59;;;;;;;4.35;3.40;;;;;;;4.37;82.18;100556.97;2486449;29;20051;-77
2024/03/06 03:01:14;;;;;;;5.70;2.92;;;;;;;4.34;82.22;100554.34;2486223;29;20043;-77
2024/03/06 03:02:28;;;;;;;5.82;4.55;;;;;;;4.32;82.24;100555.16;2486682;29;20402;-77
2024/03/06 03:03:44;;;;;;;5.13;2.90;;;;;;;4.30;82.20;100555.13;2486488;29;20052;-77
2024/03/06 03:04:57;;;;;;;8.38;4.15;;;;;;;4.29;82.13;100557.72;2486301;29;20051;-77
2024/03/06 03:06:12;;;;;;;8.93;3.20;;;;;;;4.28;82.24;100561.13;2486478;29;20059;-77
2024/03/06 03:07:25;;;;;;;5.40;4.35;;;;;;;4.26;82.15;100557.63;2486441;29;20098;-77
2024/03/06 03:08:40;;;;;;;6.38;5.13;;;;;;;4.25;82.24;100564.53;2485860;29;20047;-77
2024/03/06 03:09:55;;;;;;;5.63;3.30;;;;;;;4.24;82.19;100560.22;2486998;29;20059;-77
2024/03/06 03:11:09;;;;;;;6.85;3.92;;;;;;;4.23;82.21;100555.00;2486242;29;20474;-77
2024/03/06 03:12:23;;;;;;;10.20;4.68;;;;;;;4.24;82.18;100556.78;2486352;28;20103;-77
2024/03/06 03:13:37;;;;;;;6.20;5.70;;;;;;;4.24;82.14;100562.81;2488617;29;20462;-77
2024/03/06 03:14:51;;;;;;;6.15;4.30;;;;;;;4.24;82.11;100561.94;2486309;29;20418;-77
2024/03/06 03:16:06;;;;;;;5.78;4.95;;;;;;;4.25;82.14;100561.94;2485873;29;20062;-77
2024/03/06 03:17:20;;;;;;;5.03;4.13;;;;;;;4.27;82.29;100560.25;2486865;29;20051;-77
2024/03/06 03:18:34;;;;;;;6.63;4.47;;;;;;;4.28;82.33;100554.22;2478870;29;20052;-77
2024/03/06 03:19:48;;;;;;;5.97;4.90;;;;;;;4.30;82.14;100562.03;2486646;29;20116;-77
2024/03/06 03:21:02;;;;;;;4.13;3.70;;;;;;;4.30;81.95;100568.06;2488053;29;20051;-78
2024/03/06 03:22:16;;;;;;;6.32;4.53;;;;;;;4.30;82.29;100562.03;2488735;29;20068;-78
2024/03/06 03:23:30;;;;;;;4.32;3.92;;;;;;;4.29;82.24;100563.75;2488307;29;20059;-78
2024/03/06 03:24:43;;;;;;;5.18;4.43;;;;;;;4.30;82.17;100570.63;2487149;29;20051;-78
2024/03/06 03:25:59;;;;;;;9.85;4.05;;;;;;;4.27;82.14;100568.00;2487507;29;20135;-78
2024/03/06 03:27:13;;;;;;;5.00;3.72;;;;;;;4.26;82.13;100571.44;2487120;29;20151;-78
2024/03/06 03:28:27;;;;;;;4.72;4.22;;;;;;;4.25;82.33;100572.28;2487249;29;20146;-77
2024/03/06 03:29:41;;;;;;;4.85;3.95;;;;;;;4.22;82.17;100572.22;2487349;29;20055;-78
2024/03/06 03:30:56;;;;;;;4.25;3.85;;;;;;;4.20;82.09;100566.16;2487500;29;20058;-77
2024/03/06 03:32:09;;;;;;;4.85;4.13;;;;;;;4.18;82.10;100569.56;2486925;29;20064;-77
2024/03/06 03:33:24;;;;;;;8.68;4.03;;;;;;;4.14;82.07;100563.50;2485710;29;20134;-77
2024/03/06 03:34:37;;;;;;;9.63;3.65;;;;;;;4.12;82.15;100560.00;2486959;29;20048;-77
2024/03/06 03:35:52;;;;;;;4.95;4.05;;;;;;;4.10;82.14;100565.13;2486469;29;20047;-77
2024/03/06 03:37:05;;;;;;;6.28;3.92;;;;;;;4.09;81.98;100566.00;2486399;29;20051;-77
2024/03/06 03:38:20;;;;;;;4.40;4.00;;;;;;;4.08;81.80;100571.13;2487226;29;20056;-77
2024/03/06 03:39:33;;;;;;;4.25;3.72;;;;;;;4.03;82.00;100571.06;2486665;29;20048;-77
2024/03/06 03:40:47;;;;;;;9.02;4.43;;;;;;;4.00;82.30;100573.63;2485328;29;20047;-77
2024/03/06 03:42:02;;;;;;;6.75;4.20;;;;;;;3.97;81.88;100570.09;2485577;29;20059;-77
2024/03/06 03:43:17;;;;;;;6.50;4.32;;;;;;;3.96;81.92;100570.94;2486143;29;20079;-77
2024/03/06 03:44:30;;;;;;;6.05;4.03;;;;;;;3.92;81.98;100565.75;2486407;29;20082;-76
2024/03/06 03:45:45;;;;;;;4.88;4.38;;;;;;;3.89;82.00;100563.06;2489978;29;20083;-78
2024/03/06 03:46:58;;;;;;;6.15;4.40;;;;;;;3.88;82.15;100569.09;2491414;29;20047;-78
2024/03/06 03:48:13;;;;;;;5.25;4.75;;;;;;;3.86;82.10;100570.78;2486166;29;20130;-77
2024/03/06 03:49:26;;;;;;;6.35;4.63;;;;;;;3.82;82.03;100576.75;2485332;29;20233;-78
2024/03/06 03:50:40;;;;;;;5.13;4.63;;;;;;;3.80;82.18;100573.25;2484149;29;20051;-77
2024/03/06 03:51:54;;;;;;;4.97;4.43;;;;;;;3.77;82.20;100570.63;2485049;29;20052;-77
2024/03/06 03:53:08;;;;;;;7.78;4.80;;;;;;;3.75;82.26;100577.47;2485226;29;20058;-77
2024/03/06 03:54:22;;;;;;;7.97;4.50;;;;;;;3.74;82.15;100570.56;2485870;29;20063;-77
2024/03/06 03:55:36;;;;;;;5.55;5.05;;;;;;;3.74;82.31;100580.00;2495208;28;20092;-76
2024/03/06 03:56:50;;;;;;;6.50;4.40;;;;;;;3.75;82.21;100571.44;2489472;29;20067;-77
2024/03/06 03:58:06;;;;;;;4.75;3.58;;;;;;;3.74;82.37;100580.88;2486063;29;20474;-77
2024/03/06 03:59:20;;;;;;;6.05;4.43;;;;;;;3.73;82.44;100584.31;2485371;29;20071;-77
2024/03/06 04:00:34;;;;;;;4.78;4.38;;;;;;;3.74;82.45;100587.75;2485109;29;20060;-77
2024/03/06 04:01:48;;;;;;;5.18;4.68;;;;;;;3.74;82.50;100583.47;2485569;29;20086;-77
2024/03/06 04:03:02;;;;;;;4.57;3.83;;;;;;;3.74;82.45;100585.19;2487936;29;20055;-76
2024/03/06 04:04:16;;;;;;;7.65;4.95;;;;;;;3.75;82.42;100586.94;2492736;29;20118;-76
2024/03/06 04:05:31;;;;;;;5.00;4.55;;;;;;;3.75;82.46;100587.78;2490078;29;20048;-77
2024/03/06 04:06:45;;;;;;;8.50;5.70;;;;;;;3.74;82.26;100591.19;2485406;29;20044;-77
2024/03/06 04:07:59;;;;;;;6.03;4.07;;;;;;;3.72;82.38;100585.16;2485051;29;20051;-77
2024/03/06 04:09:14;;;;;;;4.32;3.75;;;;;;;3.71;82.46;100589.44;2484638;29;20255;-77
2024/03/06 04:10:29;;;;;;;5.38;4.47;;;;;;;3.68;82.51;100591.09;2485119;29;20167;-78
2024/03/06 04:11:42;;;;;;;7.15;5.00;;;;;;;3.65;82.39;100589.34;2484893;29;20054;-77
2024/03/06 04:12:59;;;;;;;6.85;4.55;;;;;;;3.63;82.56;100588.44;2484701;29;20047;-77
2024/03/06 04:14:14;;;;;;;9.40;4.63;;;;;;;3.61;82.65;100584.94;2485553;29;20052;-77
2024/03/06 04:15:29;;;;;;;5.88;4.57;;;;;;;3.59;82.58;100588.34;2484833;29;20127;-77
2024/03/06 04:16:42;;;;;;;6.25;4.03;;;;;;;3.59;82.53;100583.19;2484083;29;20142;-77
2024/03/06 04:17:57;;;;;;;4.70;4.30;;;;;;;3.57;82.56;100593.50;2485036;29;20361;-77
2024/03/06 04:19:10;;;;;;;7.10;5.63;;;;;;;3.56;82.47;100603.75;2485065;29;20513;-77
2024/03/06 04:20:24;;;;;;;8.88;5.80;;;;;;;3.55;82.69;100600.31;2484348;29;20055;-77
2024/03/06 04:21:40;;;;;;;7.18;4.38;;;;;;;3.55;82.67;100599.47;2477216;29;20529;-77
2024/03/06 04:22:55;;;;;;;5.18;4.38;;;;;;;3.54;82.60;100603.75;2484803;29;20062;-76
2024/03/06 04:24:08;;;;;;;8.18;4.20;;;;;;;3.53;82.54;100602.00;2485186;29;20063;-77
2024/03/06 04:25:23;;;;;;;6.72;5.05;;;;;;;3.51;82.22;100603.66;2483873;29;20502;-77
2024/03/06 04:26:37;;;;;;;6.40;4.57;;;;;;;3.49;82.46;100605.38;2484726;29;20052;-77
2024/03/06 04:27:51;;;;;;;4.32;3.92;;;;;;;3.47;82.61;100602.75;2485232;29;20048;-77
2024/03/06 04:29:04;;;;;;;6.93;4.93;;;;;;;3.45;82.49;100606.16;2484287;29;20059;-77
2024/03/06 04:30:20;;;;;;;6.10;5.10;;;;;;;3.43;82.54;100602.66;2484617;29;20601;-77
2024/03/06 04:31:35;;;;;;;5.60;4.75;;;;;;;3.41;82.60;100604.38;2484640;29;20075;-77
2024/03/06 04:32:49;;;;;;;5.82;4.72;;;;;;;3.40;82.45;100605.19;2484835;29;20059;-77
2024/03/06 04:34:03;;;;;;;6.10;4.30;;;;;;;3.40;82.56;100607.75;2484781;29;20063;-78
2024/03/06 04:35:17;;;;;;;6.05;5.47;;;;;;;3.38;82.77;100605.19;2484803;29;20052;-77
2024/03/06 04:36:32;;;;;;;5.78;4.78;;;;;;;3.39;82.73;100609.47;2484527;29;20059;-77
2024/03/06 04:37:45;;;;;;;7.93;5.78;;;;;;;3.40;82.68;100608.63;2484773;29;20055;-77
2024/03/06 04:38:59;;;;;;;7.13;4.72;;;;;;;3.40;82.67;100605.19;2485178;29;20055;-77
2024/03/06 04:40:17;;;;;;;6.72;5.43;;;;;;;3.39;82.78;100609.47;2485011;29;20052;-77
2024/03/06 04:41:32;;;;;;;9.13;5.82;;;;;;;3.40;82.70;100613.78;2484389;29;20043;-77
2024/03/06 04:42:46;;;;;;;7.15;5.13;;;;;;;3.40;82.96;100616.38;2485291;29;20056;-78
2024/03/06 04:44:00;;;;;;;6.82;5.03;;;;;;;3.40;82.72;100616.38;2485513;29;20052;-77
2024/03/06 04:45:16;;;;;;;8.75;5.68;;;;;;;3.41;82.83;100620.72;2484706;29;20117;-78
2024/03/06 04:46:31;;;;;;;9.15;5.70;;;;;;;3.42;82.90;100621.56;2485336;29;20044;-78
2024/03/06 04:47:45;;;;;;;9.77;5.65;;;;;;;3.42;82.88;100617.28;2485536;29;20048;-77
2024/03/06 04:48:58;;;;;;;6.03;4.38;;;;;;;3.42;82.89;100622.44;2485131;29;20054;-78
2024/03/06 04:50:14;;;;;;;4.93;4.43;;;;;;;3.40;82.83;100621.53;2485727;29;20433;-77
2024/03/06 04:51:27;;;;;;;10.90;5.78;;;;;;;3.39;82.84;100612.06;2486070;29;20066;-78
2024/03/06 04:52:42;;;;;;;4.80;4.28;;;;;;;3.41;82.93;100612.09;2485252;29;20048;-77
2024/03/06 04:53:55;;;;;;;5.63;4.88;;;;;;;3.40;82.95;100625.81;2485538;29;20074;-78
2024/03/06 04:55:11;;;;;;;10.55;5.28;;;;;;;3.39;82.88;100624.97;2485533;29;20043;-77
2024/03/06 04:56:24;;;;;;;7.10;4.80;;;;;;;3.39;82.95;100621.50;2485860;29;20090;-77
2024/03/06 04:57:40;;;;;;;6.05;4.57;;;;;;;3.37;82.99;100628.34;2485740;29;20047;-78
2024/03/06 04:58:54;;;;;;;6.70;4.80;;;;;;;3.34;82.94;100631.72;2485706;29;20044;-77
2024/03/06 05:00:10;;;;;;;5.97;4.50;;;;;;;3.34;82.94;100631.72;2485939;29;20573;-78
2024/03/06 05:01:23;;;;;;;7.43;5.57;;;;;;;3.34;82.98;100633.44;2492684;29;20050;-76
2024/03/06 05:02:39;;;;;;;11.20;5.22;;;;;;;3.39;83.09;100634.41;2489027;29;20053;-77
2024/03/06 05:03:52;;;;;;;6.30;4.90;;;;;;;3.41;83.08;100633.59;2486534;29;20429;-76
2024/03/06 05:05:08;;;;;;;6.28;5.47;;;;;;;3.43;83.07;100637.09;2484539;29;20127;-77
2024/03/06 05:06:22;;;;;;;6.13;5.32;;;;;;;3.46;83.21;100636.28;2485409;29;20139;-77
2024/03/06 05:07:37;;;;;;;5.93;4.25;;;;;;;3.47;83.17;100635.44;2484967;29;20099;-78
2024/03/06 05:08:50;;;;;;;7.65;5.45;;;;;;;3.46;83.05;100634.56;2484786;29;20047;-77
2024/03/06 05:10:07;;;;;;;7.60;5.25;;;;;;;3.48;83.23;100640.63;2485289;29;20103;-77
2024/03/06 05:11:21;;;;;;;7.35;5.55;;;;;;;3.51;83.27;100639.78;2485645;29;20107;-77
2024/03/06 05:12:35;;;;;;;7.50;5.50;;;;;;;3.53;83.42;100647.56;2484883;29;20051;-77
2024/03/06 05:13:49;;;;;;;9.13;4.97;;;;;;;3.55;83.34;100645.91;2485409;29;20437;-77
2024/03/06 05:15:04;;;;;;;5.55;5.05;;;;;;;3.56;83.28;100645.06;2485385;29;20052;-77
2024/03/06 05:16:18;;;;;;;7.35;4.97;;;;;;;3.57;83.19;100646.81;2484957;28;20047;-78
2024/03/06 05:17:32;;;;;;;6.88;5.30;;;;;;;3.55;83.26;100644.19;2486344;29;20074;-78
2024/03/06 05:18:47;;;;;;;6.78;5.70;;;;;;;3.57;83.27;100654.56;2485557;29;20067;-78
2024/03/06 05:20:03;;;;;;;9.43;5.13;;;;;;;3.56;83.58;100648.50;2485654;29;20382;-77
2024/03/06 05:21:17;;;;;;;7.82;5.15;;;;;;;3.57;83.40;100659.72;2484459;29;20058;-77
2024/03/06 05:22:31;;;;;;;9.07;6.43;;;;;;;3.57;83.27;100662.28;2485603;29;20074;-78
2024/03/06 05:23:45;;;;;;;5.53;5.03;;;;;;;3.58;83.37;100659.72;2485463;29;20063;-78
2024/03/06 05:24:59;;;;;;;10.95;7.55;;;;;;;3.59;83.54;100668.34;2484923;29;20086;-78
2024/03/06 05:26:13;;;;;;;6.68;6.03;;;;;;;3.60;83.48;100660.63;2484334;29;20062;-77
2024/03/06 05:27:27;;;;;;;6.07;5.45;;;;;;;3.62;83.43;100661.53;2483460;29;20677;-77
2024/03/06 05:28:41;;;;;;;10.75;4.93;;;;;;;3.67;83.51;100669.38;2480997;29;20127;-77
2024/03/06 05:29:55;;;;;;;11.93;6.35;;;;;;;3.68;83.43;100668.53;2483784;29;20063;-77
2024/03/06 05:31:16;;;;;;;6.90;5.53;;;;;;;3.70;83.47;100678.03;2483832;29;20131;-77
2024/03/06 05:32:30;;;;;;;9.98;6.15;;;;;;;3.71;83.63;100669.44;2483309;29;20055;-77
2024/03/06 05:33:44;;;;;;;9.55;6.45;;;;;;;3.75;83.40;100677.28;2483517;29;20111;-77
2024/03/06 05:35:00;;;;;;;8.90;6.82;;;;;;;3.78;83.47;100677.34;2483705;29;20052;-76
2024/03/06 05:36:13;;;;;;;11.55;5.75;;;;;;;3.81;83.58;100677.38;2483165;29;20052;-77
2024/03/06 05:37:28;;;;;;;8.02;6.18;;;;;;;3.84;83.63;100685.19;2482831;29;20414;-76
2024/03/06 05:38:42;;;;;;;8.32;5.25;;;;;;;3.87;83.57;100685.22;2475386;29;20081;-76
2024/03/06 05:39:57;;;;;;;7.43;6.63;;;;;;;3.89;83.53;100689.59;2482825;29;20518;-76
2024/03/06 05:41:10;;;;;;;5.80;4.90;;;;;;;3.91;83.63;100692.22;2482572;29;20457;-76
2024/03/06 05:42:24;;;;;;;7.30;5.07;;;;;;;3.92;83.58;100683.59;2482889;29;20099;-76
2024/03/06 05:43:38;;;;;;;11.73;6.38;;;;;;;3.94;83.53;100693.13;2483784;29;20436;-77
2024/03/06 05:44:54;;;;;;;10.15;5.80;;;;;;;3.96;83.76;100695.75;2483414;29;20052;-77
2024/03/06 05:46:08;;;;;;;7.50;5.65;;;;;;;3.98;83.62;100694.06;2483653;29;20055;-77
2024/03/06 05:47:22;;;;;;;7.72;5.10;;;;;;;3.99;83.63;100694.94;2484436;29;20063;-78
2024/03/06 05:48:35;;;;;;;9.00;5.80;;;;;;;4.00;83.58;100701.84;2483526;29;20056;-77
2024/03/06 05:49:50;;;;;;;6.72;6.15;;;;;;;4.00;83.54;100701.84;2483542;29;20055;-77